< < Back
Terminal Aerodrome Forecast


Current Version              Previous Versions:   1  2  3  4  5  6  7  8  9  

Terminal Aerodrome Forecast

077
FTUS42 KJAX 211200 AAB
TAFJAX
TAF AMD
KJAX 211208Z 2112/2212 00000KT 5SM BR SCT250
      TEMPO 2112/2113 1/2SM FG BKN002
     FM211300 31006KT P6SM SCT250
     FM220000 VRB03KT P6SM SKC=



Latest METAR

208
SAUS80 KWBC 220800 RRA
MTRJAX
METAR KJAX 220756Z 00000KT 9SM CLR 14/14 A2994 RMK AO2 SLP139 T01390139
$


USA.gov is the U.S. government's official web portal to all federal, state and local government web resources and services.